Time;durP1;ratioP1;P1;durP2;ratioP2;P2;SDS_P1;SDS_P2;PMS_P1;PMS_P2;Temp;Humidity;BMP_temperature;BMP_pressure;BME280_temperature;BME280_humidity;BME280_pressure;Samples;Min_cycle;Max_cycle;Signal;HPM_P1;HPM_P2
2021/07/28 00:00:10;;;;;;;9.05;5.05;;;24.40;74.40;;;;;;5000795;28;20271;-77
2021/07/28 00:02:38;;;;;;;12.32;6.30;;;24.30;74.80;;;;;;5009800;28;20213;-77
2021/07/28 00:05:04;;;;;;;9.02;6.53;;;24.20;74.60;;;;;;4998884;28;20196;-77
2021/07/28 00:07:29;;;;;;;7.63;6.18;;;24.20;74.80;;;;;;5007619;28;20185;-76
2021/07/28 00:09:55;;;;;;;7.53;5.55;;;24.20;75.00;;;;;;5006589;28;20239;-77
2021/07/28 00:12:21;;;;;;;13.55;5.78;;;24.10;74.80;;;;;;5002509;28;20189;-77
2021/07/28 00:14:46;;;;;;;9.57;5.78;;;24.10;75.20;;;;;;4997029;28;20185;-77
2021/07/28 00:17:13;;;;;;;6.93;6.15;;;24.10;74.90;;;;;;5008965;28;20184;-77
2021/07/28 00:20:04;;;;;;;8.75;5.70;;;24.10;74.90;;;;;;5005895;28;20181;-77
2021/07/28 00:25:09;;;;;;;9.32;5.35;;;24.10;75.40;;;;;;5004507;28;20191;-77
2021/07/28 00:27:35;;;;;;;8.30;5.20;;;24.10;75.60;;;;;;5008016;28;20268;-77
2021/07/28 00:30:02;;;;;;;8.27;5.65;;;24.00;75.20;;;;;;5005558;28;20685;-77
2021/07/28 00:32:27;;;;;;;8.88;5.95;;;24.00;75.50;;;;;;5009014;28;20177;-77
2021/07/28 00:34:53;;;;;;;7.88;5.57;;;24.00;75.70;;;;;;5005230;28;20207;-77
2021/07/28 00:37:19;;;;;;;13.25;5.97;;;24.00;75.90;;;;;;5007920;28;21057;-77
2021/07/28 00:39:44;;;;;;;6.45;5.68;;;23.90;75.80;;;;;;5006979;28;20617;-77
2021/07/28 00:42:10;;;;;;;14.20;5.90;;;23.90;75.50;;;;;;4998439;28;20785;-77
2021/07/28 00:44:36;;;;;;;7.85;5.68;;;23.80;75.10;;;;;;5006356;28;20732;-77
2021/07/28 00:47:01;;;;;;;5.80;4.95;;;23.70;75.00;;;;;;5005941;28;20185;-77
2021/07/28 00:49:27;;;;;;;6.15;4.65;;;23.70;74.70;;;;;;5006229;28;20185;-77
2021/07/28 00:51:55;;;;;;;8.35;4.72;;;23.60;74.60;;;;;;5009572;28;20865;-76
2021/07/28 00:54:23;;;;;;;7.30;4.93;;;23.60;74.70;;;;;;5004521;28;20193;-76
2021/07/28 00:56:48;;;;;;;8.02;4.53;;;23.60;75.20;;;;;;5008508;28;20193;-76
2021/07/28 00:59:15;;;;;;;8.27;4.82;;;23.50;75.10;;;;;;5003570;28;20181;-76
2021/07/28 01:01:41;;;;;;;6.45;4.97;;;23.50;74.90;;;;;;5006736;28;20806;-77
2021/07/28 01:04:07;;;;;;;7.90;5.60;;;23.50;75.20;;;;;;5005552;28;20217;-77
2021/07/28 01:06:32;;;;;;;10.82;5.03;;;23.50;75.30;;;;;;4999991;28;20223;-76
2021/07/28 01:08:59;;;;;;;9.52;5.72;;;23.40;75.40;;;;;;5004146;28;20216;-76
2021/07/28 01:11:26;;;;;;;8.90;5.97;;;23.40;75.90;;;;;;5001405;28;20250;-77
2021/07/28 01:13:52;;;;;;;6.25;5.65;;;23.40;76.40;;;;;;4998140;28;20677;-76
2021/07/28 01:16:25;;;;;;;5.28;4.78;;;23.40;76.50;;;;;;5000427;28;20204;-76
2021/07/28 01:18:51;;;;;;;9.10;5.53;;;23.40;76.00;;;;;;5006221;28;20181;-77
2021/07/28 01:21:19;;;;;;;10.45;5.88;;;23.40;76.10;;;;;;5005237;28;20209;-76
2021/07/28 01:23:47;;;;;;;9.30;6.28;;;23.40;75.80;;;;;;5003205;28;20268;-77
2021/07/28 01:26:14;;;;;;;8.73;6.10;;;23.30;76.10;;;;;;5005969;28;20184;-76
2021/07/28 01:28:40;;;;;;;8.45;5.80;;;23.30;76.10;;;;;;5005592;28;20633;-76
2021/07/28 01:31:12;;;;;;;5.85;4.82;;;23.30;76.20;;;;;;5001594;28;20190;-75
2021/07/28 01:33:41;;;;;;;8.85;5.82;;;23.30;75.80;;;;;;5002663;28;20189;-75
2021/07/28 01:36:09;;;;;;;12.27;7.32;;;23.30;76.10;;;;;;5006096;28;20201;-75
2021/07/28 01:38:35;;;;;;;13.50;7.32;;;23.30;76.50;;;;;;4998249;28;20624;-75
2021/07/28 01:41:03;;;;;;;12.85;7.65;;;23.30;76.60;;;;;;5003856;28;20223;-74
2021/07/28 01:43:29;;;;;;;22.27;9.98;;;23.30;76.80;;;;;;4997398;28;20200;-77
2021/07/28 01:45:56;;;;;;;24.27;11.10;;;23.30;77.00;;;;;;5006203;28;21034;-77
2021/07/28 01:48:23;;;;;;;24.95;12.38;;;23.30;77.40;;;;;;5002239;28;20177;-77
2021/07/28 01:50:49;;;;;;;31.58;11.80;;;23.20;77.90;;;;;;5007778;28;20203;-77
2021/07/28 01:53:15;;;;;;;25.75;12.18;;;23.20;77.90;;;;;;5006318;28;20185;-77
2021/07/28 01:55:42;;;;;;;18.15;8.85;;;23.20;78.20;;;;;;5005998;28;20215;-77
2021/07/28 01:58:08;;;;;;;23.92;9.38;;;23.10;78.20;;;;;;5003107;28;20267;-77
2021/07/28 02:00:34;;;;;;;11.80;7.97;;;23.10;78.30;;;;;;5006951;28;20689;-75
2021/07/28 02:03:03;;;;;;;16.00;8.82;;;23.10;78.10;;;;;;5001373;28;20590;-76
2021/07/28 02:05:32;;;;;;;15.95;8.30;;;23.10;78.30;;;;;;5003042;28;21441;-75
2021/07/28 02:08:02;;;;;;;13.88;8.85;;;23.00;78.10;;;;;;5005929;28;20180;-76
2021/07/28 02:10:28;;;;;;;15.80;8.50;;;23.00;78.30;;;;;;5003335;28;20291;-75
2021/07/28 02:12:54;;;;;;;10.50;6.88;;;23.00;78.50;;;;;;5001359;28;20281;-77
2021/07/28 02:15:23;;;;;;;8.50;6.40;;;23.00;78.10;;;;;;5000284;28;20273;-77
2021/07/28 02:17:51;;;;;;;11.60;6.60;;;22.90;77.80;;;;;;5003058;28;20613;-76
2021/07/28 02:20:18;;;;;;;8.90;6.20;;;22.90;77.90;;;;;;5005533;28;20189;-76
2021/07/28 02:22:44;;;;;;;8.73;6.45;;;22.90;78.00;;;;;;5004527;28;20220;-76
2021/07/28 02:25:11;;;;;;;9.75;6.68;;;22.90;78.50;;;;;;5005010;28;20276;-76
2021/07/28 02:27:36;;;;;;;10.48;6.93;;;22.90;78.50;;;;;;5005838;28;20225;-76
2021/07/28 02:30:03;;;;;;;10.18;6.22;;;22.90;78.80;;;;;;4998433;28;20185;-76
2021/07/28 02:32:29;;;;;;;10.55;6.25;;;22.90;78.80;;;;;;4993256;28;20192;-76
2021/07/28 02:34:55;;;;;;;8.65;6.40;;;22.90;79.10;;;;;;4998774;28;20239;-76
2021/07/28 02:37:21;;;;;;;10.57;6.13;;;22.80;79.10;;;;;;5003218;28;20189;-76
2021/07/28 02:39:46;;;;;;;9.32;6.55;;;22.80;79.90;;;;;;5000663;28;20193;-75
2021/07/28 02:42:12;;;;;;;7.40;5.88;;;22.80;79.60;;;;;;5006841;28;20209;-76
2021/07/28 02:44:37;;;;;;;9.13;6.57;;;22.80;79.90;;;;;;5006312;28;20716;-76
2021/07/28 02:47:03;;;;;;;12.48;6.00;;;22.70;79.70;;;;;;5007118;28;20200;-76
2021/07/28 02:49:29;;;;;;;16.42;6.63;;;22.70;79.60;;;;;;4993824;28;20193;-76
2021/07/28 02:51:54;;;;;;;6.28;5.60;;;22.70;79.80;;;;;;4999646;28;20243;-76
2021/07/28 02:54:22;;;;;;;8.80;5.95;;;22.60;79.60;;;;;;5003201;28;20665;-75
2021/07/28 02:56:48;;;;;;;8.52;5.82;;;22.60;79.80;;;;;;4996112;28;20186;-76
2021/07/28 02:59:14;;;;;;;10.65;5.88;;;22.60;79.50;;;;;;5002445;28;20261;-76
2021/07/28 03:01:40;;;;;;;7.00;6.38;;;22.60;79.80;;;;;;5005518;28;20209;-76
2021/07/28 03:04:05;;;;;;;8.40;5.85;;;22.50;79.80;;;;;;5005775;28;20185;-76
2021/07/28 03:06:31;;;;;;;8.32;6.18;;;22.50;80.40;;;;;;5010632;28;20169;-76
2021/07/28 03:08:57;;;;;;;8.52;6.10;;;22.50;80.50;;;;;;4996564;28;20185;-76
2021/07/28 03:11:23;;;;;;;12.88;6.43;;;22.40;80.10;;;;;;5008207;28;20631;-77
2021/07/28 03:13:49;;;;;;;12.20;6.47;;;22.40;80.40;;;;;;5009251;28;20189;-77
2021/07/28 03:16:16;;;;;;;10.25;6.40;;;22.30;80.40;;;;;;5008763;28;20211;-77
2021/07/28 03:18:42;;;;;;;9.48;6.63;;;22.30;81.60;;;;;;5006349;28;20184;-75
2021/07/28 03:21:08;;;;;;;7.47;5.90;;;22.20;80.90;;;;;;5010301;28;20215;-77
2021/07/28 03:23:34;;;;;;;7.47;5.82;;;22.10;81.20;;;;;;5007985;28;20200;-75
2021/07/28 03:25:59;;;;;;;7.68;6.35;;;22.00;81.20;;;;;;5003219;28;20195;-77
2021/07/28 03:28:25;;;;;;;7.30;6.00;;;22.00;81.60;;;;;;5006754;28;20718;-76
2021/07/28 03:30:51;;;;;;;6.20;5.68;;;22.00;81.30;;;;;;5009733;28;20208;-77
2021/07/28 03:33:18;;;;;;;8.75;5.90;;;22.00;81.60;;;;;;5005910;28;20731;-76
2021/07/28 03:35:44;;;;;;;6.13;5.57;;;22.00;81.60;;;;;;5010754;28;20185;-77
2021/07/28 03:38:12;;;;;;;8.45;6.15;;;22.00;81.80;;;;;;5001848;28;20185;-77
2021/07/28 03:40:38;;;;;;;8.88;5.82;;;22.00;81.50;;;;;;5004638;28;20192;-77
2021/07/28 03:43:05;;;;;;;11.43;5.95;;;22.00;81.70;;;;;;5005122;28;20196;-78
2021/07/28 03:45:31;;;;;;;11.02;6.00;;;22.00;81.70;;;;;;5004728;28;20567;-78
2021/07/28 03:47:56;;;;;;;8.82;5.80;;;22.00;81.70;;;;;;5009680;28;20177;-78
2021/07/28 03:50:22;;;;;;;7.00;6.30;;;22.00;81.60;;;;;;5003688;28;20191;-77
2021/07/28 03:52:48;;;;;;;7.60;5.72;;;22.00;81.60;;;;;;5007411;28;20578;-75
2021/07/28 03:55:13;;;;;;;8.95;6.60;;;22.00;81.50;;;;;;5005613;28;20177;-77
2021/07/28 03:57:39;;;;;;;6.85;6.25;;;22.00;81.60;;;;;;5006580;28;20185;-77
2021/07/28 04:00:06;;;;;;;6.60;5.85;;;22.00;81.60;;;;;;5005481;28;20204;-77
2021/07/28 04:02:32;;;;;;;6.63;5.32;;;22.00;81.60;;;;;;5007208;28;20204;-78
2021/07/28 04:04:57;;;;;;;6.53;5.68;;;22.00;81.60;;;;;;5001336;28;20270;-77
2021/07/28 04:07:23;;;;;;;6.15;5.47;;;22.10;81.80;;;;;;5005967;28;20192;-78
2021/07/28 04:09:49;;;;;;;9.73;5.45;;;22.10;81.80;;;;;;5009354;28;20184;-77
2021/07/28 04:12:14;;;;;;;6.60;5.43;;;22.10;81.90;;;;;;5006186;28;20670;-77
2021/07/28 04:14:40;;;;;;;7.30;6.38;;;22.20;81.90;;;;;;4999455;28;20552;-74
2021/07/28 04:17:06;;;;;;;7.50;6.45;;;22.20;81.70;;;;;;5007913;28;20189;-75
2021/07/28 04:19:32;;;;;;;9.52;6.15;;;22.20;82.00;;;;;;5003366;28;20193;-76
2021/07/28 04:21:57;;;;;;;11.05;6.43;;;22.30;82.00;;;;;;4998916;28;20311;-75
2021/07/28 04:24:23;;;;;;;7.53;6.47;;;22.30;82.10;;;;;;4997375;28;20667;-75
2021/07/28 04:26:49;;;;;;;8.10;5.53;;;22.30;82.20;;;;;;5005370;28;20193;-74
2021/07/28 04:29:14;;;;;;;6.72;6.05;;;22.30;82.30;;;;;;5006514;28;20192;-75
2021/07/28 04:31:40;;;;;;;8.15;5.88;;;22.30;82.30;;;;;;5006758;28;20197;-74
2021/07/28 04:34:06;;;;;;;8.07;6.05;;;22.30;82.20;;;;;;5005064;28;20576;-74
2021/07/28 04:36:32;;;;;;;7.68;6.22;;;22.40;82.30;;;;;;5006061;28;20873;-73
2021/07/28 04:39:01;;;;;;;9.93;6.22;;;22.40;82.60;;;;;;4996564;28;20616;-73
2021/07/28 04:41:26;;;;;;;7.13;6.38;;;22.50;82.30;;;;;;5000115;28;20201;-73
2021/07/28 04:43:52;;;;;;;11.55;6.70;;;22.40;82.90;;;;;;4994463;28;20197;-74
2021/07/28 04:46:18;;;;;;;7.90;6.22;;;22.40;82.50;;;;;;5003554;28;20177;-77
2021/07/28 04:48:44;;;;;;;6.60;6.00;;;22.50;82.30;;;;;;5029794;28;20188;-77
2021/07/28 04:51:09;;;;;;;11.55;6.53;;;22.50;82.10;;;;;;5027145;28;20692;-77
2021/07/28 04:53:35;;;;;;;7.65;5.80;;;22.50;81.90;;;;;;5035016;28;20192;-77
2021/07/28 04:56:01;;;;;;;7.10;5.85;;;22.60;81.70;;;;;;5033542;28;20176;-76
2021/07/28 04:58:27;;;;;;;7.75;6.50;;;22.60;81.60;;;;;;5028256;28;20174;-77
2021/07/28 05:00:53;;;;;;;7.18;6.30;;;22.70;81.70;;;;;;5035614;28;20245;-77
2021/07/28 05:03:19;;;;;;;14.35;8.23;;;22.70;81.70;;;;;;5034945;28;20203;-75
2021/07/28 05:05:45;;;;;;;7.85;6.80;;;22.70;81.60;;;;;;5005057;28;20276;-75
2021/07/28 05:08:11;;;;;;;11.32;7.15;;;22.70;81.50;;;;;;5007237;28;20271;-75
2021/07/28 05:10:37;;;;;;;12.82;6.32;;;22.80;81.40;;;;;;4999054;28;20239;-75
2021/07/28 05:13:03;;;;;;;7.80;6.97;;;22.80;82.30;;;;;;5004425;28;20193;-76
2021/07/28 05:15:29;;;;;;;11.27;7.20;;;22.80;81.50;;;;;;5004238;28;20189;-75
2021/07/28 05:17:55;;;;;;;7.15;6.53;;;22.90;81.40;;;;;;5007009;28;20188;-75
2021/07/28 05:20:21;;;;;;;8.20;6.90;;;22.90;81.30;;;;;;5002472;28;20188;-75
2021/07/28 05:22:47;;;;;;;10.32;7.15;;;23.00;81.60;;;;;;5007263;28;20271;-75
2021/07/28 05:25:14;;;;;;;11.90;7.55;;;23.00;81.50;;;;;;5004894;28;20660;-75
2021/07/28 05:27:39;;;;;;;8.55;7.75;;;23.00;81.40;;;;;;4999506;28;20626;-73
2021/07/28 05:30:06;;;;;;;12.88;7.43;;;23.00;81.20;;;;;;5007837;28;20515;-76
2021/07/28 05:32:32;;;;;;;9.25;6.85;;;23.10;81.10;;;;;;5007110;28;20215;-75
2021/07/28 05:34:58;;;;;;;8.73;7.72;;;23.10;81.70;;;;;;5007746;28;20211;-75
2021/07/28 05:37:24;;;;;;;9.65;7.13;;;23.20;82.20;;;;;;5007350;28;20949;-74
2021/07/28 05:39:50;;;;;;;10.13;6.95;;;23.20;81.20;;;;;;5007443;28;20196;-75
2021/07/28 05:42:16;;;;;;;10.55;6.88;;;23.30;81.10;;;;;;5007440;28;20212;-75
2021/07/28 05:44:42;;;;;;;10.43;7.25;;;23.30;81.10;;;;;;5005202;28;20279;-75
2021/07/28 05:47:08;;;;;;;11.10;8.13;;;23.40;81.00;;;;;;5005122;28;20193;-75
2021/07/28 05:49:34;;;;;;;11.32;7.57;;;23.40;80.90;;;;;;5007414;28;20558;-75
2021/07/28 05:51:59;;;;;;;14.05;6.93;;;23.50;80.80;;;;;;5006450;28;20210;-75
2021/07/28 05:54:25;;;;;;;11.18;8.35;;;23.50;80.60;;;;;;5006032;28;20188;-74
2021/07/28 05:56:51;;;;;;;8.65;7.75;;;23.60;80.20;;;;;;5006994;28;20204;-74
2021/07/28 05:59:17;;;;;;;10.05;8.68;;;23.70;80.30;;;;;;5006549;28;20711;-74
2021/07/28 06:01:42;;;;;;;14.98;8.60;;;23.70;80.10;;;;;;5004839;28;20761;-74
2021/07/28 06:04:08;;;;;;;9.48;7.40;;;23.80;79.70;;;;;;5003781;28;20582;-74
2021/07/28 06:06:34;;;;;;;8.75;7.55;;;23.80;80.00;;;;;;5006313;28;20266;-75
2021/07/28 06:08:59;;;;;;;13.63;8.20;;;23.90;79.80;;;;;;5005856;28;20192;-74
2021/07/28 06:11:25;;;;;;;13.05;8.70;;;24.00;79.40;;;;;;5002951;28;20214;-74
2021/07/28 06:13:51;;;;;;;15.15;8.18;;;24.00;79.20;;;;;;5004938;28;20718;-74
2021/07/28 06:16:17;;;;;;;8.40;7.70;;;24.10;79.60;;;;;;5004924;28;20576;-75
2021/07/28 06:18:43;;;;;;;10.43;8.30;;;24.20;79.60;;;;;;5002469;28;20196;-74
2021/07/28 06:21:09;;;;;;;12.55;8.52;;;24.20;79.00;;;;;;5005428;28;20216;-76
2021/07/28 06:23:35;;;;;;;10.68;7.88;;;24.30;78.80;;;;;;5001317;28;20724;-75
2021/07/28 06:26:00;;;;;;;11.60;8.02;;;24.40;78.30;;;;;;5002526;28;20181;-76
2021/07/28 06:28:26;;;;;;;11.43;8.45;;;24.40;78.10;;;;;;5004958;28;20260;-76
2021/07/28 06:30:55;;;;;;;12.20;8.20;;;24.50;78.20;;;;;;5004869;28;20181;-76
2021/07/28 06:33:22;;;;;;;11.18;8.18;;;24.60;77.60;;;;;;5004677;28;20177;-75
2021/07/28 06:35:49;;;;;;;8.68;7.85;;;24.60;77.60;;;;;;5006138;28;20183;-75
2021/07/28 06:38:15;;;;;;;12.13;8.07;;;24.70;77.60;;;;;;5008917;28;20196;-75
2021/07/28 06:40:41;;;;;;;9.45;8.05;;;24.80;77.50;;;;;;5007096;28;20192;-76
2021/07/28 06:43:07;;;;;;;12.50;8.20;;;24.90;77.30;;;;;;5009440;28;20494;-76
2021/07/28 06:45:32;;;;;;;9.57;8.25;;;25.00;77.20;;;;;;5004357;28;20845;-76
2021/07/28 06:47:58;;;;;;;13.85;8.90;;;25.00;77.40;;;;;;5009006;28;20635;-76
2021/07/28 06:50:24;;;;;;;15.10;8.05;;;25.10;77.20;;;;;;5005691;28;20200;-76
2021/07/28 06:52:50;;;;;;;10.80;8.35;;;25.20;76.70;;;;;;5008517;28;20379;-76
2021/07/28 06:55:16;;;;;;;8.80;7.65;;;25.30;76.40;;;;;;5006319;28;20264;-75
2021/07/28 06:57:42;;;;;;;8.07;7.07;;;25.40;76.30;;;;;;5006599;28;20674;-76
2021/07/28 07:00:08;;;;;;;11.27;7.85;;;25.40;76.10;;;;;;5007685;28;20295;-76
2021/07/28 07:02:34;;;;;;;11.70;8.77;;;25.50;75.70;;;;;;5005933;28;20219;-75
2021/07/28 07:04:59;;;;;;;11.75;8.23;;;25.60;75.40;;;;;;5005476;28;20189;-75
2021/07/28 07:07:25;;;;;;;14.38;8.20;;;25.70;75.20;;;;;;5004979;28;20287;-75
2021/07/28 07:09:54;;;;;;;13.57;8.85;;;25.80;75.20;;;;;;5003041;28;20264;-75
2021/07/28 07:12:20;;;;;;;16.60;9.05;;;25.80;75.10;;;;;;5006878;28;20685;-75
2021/07/28 07:14:46;;;;;;;20.25;8.35;;;25.90;74.70;;;;;;5008384;28;20189;-75
2021/07/28 07:17:12;;;;;;;11.95;8.15;;;26.00;74.70;;;;;;5003548;28;20204;-75
2021/07/28 07:19:38;;;;;;;11.77;9.07;;;26.10;74.50;;;;;;5005193;28;20185;-75
2021/07/28 07:22:04;;;;;;;9.38;8.43;;;26.20;73.80;;;;;;5005619;28;20248;-74
2021/07/28 07:24:30;;;;;;;13.10;8.75;;;26.20;73.50;;;;;;5006526;28;20682;-74
2021/07/28 07:26:56;;;;;;;14.32;8.70;;;26.30;73.50;;;;;;5003966;28;20191;-74
2021/07/28 07:29:23;;;;;;;10.65;8.32;;;26.40;72.80;;;;;;5005189;28;20185;-74
2021/07/28 07:31:49;;;;;;;15.13;8.75;;;26.40;72.70;;;;;;5006595;28;20580;-75
2021/07/28 07:34:14;;;;;;;12.52;8.55;;;26.50;72.50;;;;;;5007339;28;20264;-75
2021/07/28 07:36:40;;;;;;;13.45;8.50;;;26.60;73.40;;;;;;5003979;28;20211;-75
2021/07/28 07:39:07;;;;;;;9.80;8.45;;;26.70;73.50;;;;;;5006231;28;20182;-75
2021/07/28 07:41:33;;;;;;;12.93;8.52;;;26.80;73.40;;;;;;5005371;28;20224;-75
2021/07/28 07:44:00;;;;;;;13.20;8.00;;;26.90;72.80;;;;;;5005168;28;20216;-75
2021/07/28 07:46:27;;;;;;;14.55;9.60;;;27.00;72.40;;;;;;5007265;28;20247;-75
2021/07/28 07:48:53;;;;;;;12.63;9.45;;;27.10;72.40;;;;;;5009326;28;20197;-75
2021/07/28 07:51:23;;;;;;;11.98;8.43;;;27.20;72.00;;;;;;5005739;28;20307;-75
2021/07/28 07:53:49;;;;;;;10.43;8.07;;;27.20;71.60;;;;;;5005403;28;20266;-75
2021/07/28 07:56:15;;;;;;;9.77;8.40;;;27.30;71.20;;;;;;5005333;28;20207;-75
2021/07/28 07:58:41;;;;;;;14.70;8.38;;;27.40;70.80;;;;;;5007334;28;20185;-75
2021/07/28 08:01:07;;;;;;;12.68;8.25;;;27.50;70.50;;;;;;5004193;28;20211;-75
2021/07/28 08:03:33;;;;;;;13.65;9.07;;;27.60;70.20;;;;;;5006450;28;20705;-75
2021/07/28 08:05:59;;;;;;;16.65;8.95;;;27.70;69.80;;;;;;5002469;28;20212;-75
2021/07/28 08:08:24;;;;;;;10.50;8.65;;;27.80;70.30;;;;;;5004573;28;20258;-75
2021/07/28 08:10:50;;;;;;;11.63;8.10;;;27.90;70.00;;;;;;5005528;28;20220;-75
2021/07/28 08:13:16;;;;;;;14.35;8.63;;;28.00;70.00;;;;;;5007418;28;20185;-75
2021/07/28 08:15:41;;;;;;;14.52;9.00;;;28.10;69.60;;;;;;5001909;28;20627;-75
2021/07/28 08:18:09;;;;;;;12.68;9.05;;;28.20;69.50;;;;;;5004043;28;20211;-75
2021/07/28 08:20:35;;;;;;;11.60;8.73;;;28.30;68.50;;;;;;5007266;28;20682;-75
2021/07/28 08:23:01;;;;;;;11.60;8.93;;;28.40;68.30;;;;;;5008710;28;20289;-75
2021/07/28 08:25:27;;;;;;;12.05;8.43;;;28.50;67.80;;;;;;5006771;28;20280;-75
2021/07/28 08:27:52;;;;;;;15.68;8.90;;;28.60;68.10;;;;;;5008754;28;20185;-75
2021/07/28 08:30:18;;;;;;;15.40;8.68;;;28.70;68.00;;;;;;5008515;28;20247;-75
2021/07/28 08:32:44;;;;;;;9.07;8.00;;;28.80;68.10;;;;;;5006774;28;20616;-75
2021/07/28 08:35:09;;;;;;;17.27;8.02;;;28.90;67.80;;;;;;5008256;28;20556;-75
2021/07/28 08:37:39;;;;;;;11.35;8.50;;;29.00;67.50;;;;;;5004947;28;20220;-75
2021/07/28 08:40:17;;;;;;;11.57;7.95;;;29.10;67.00;;;;;;5004022;28;20219;-74
2021/07/28 08:42:49;;;;;;;8.88;7.75;;;29.20;66.90;;;;;;5005767;28;20267;-74
2021/07/28 08:45:16;;;;;;;8.52;7.78;;;29.40;66.60;;;;;;5006486;28;20207;-74
2021/07/28 08:47:43;;;;;;;10.23;7.28;;;29.50;66.80;;;;;;5004421;28;20181;-74
2021/07/28 08:50:10;;;;;;;11.45;7.47;;;29.60;66.60;;;;;;5003046;28;20781;-74
2021/07/28 08:52:37;;;;;;;14.50;6.95;;;29.70;66.50;;;;;;5006654;28;20188;-74
2021/07/28 08:55:04;;;;;;;11.80;7.72;;;29.80;64.80;;;;;;5006487;28;20585;-74
2021/07/28 08:57:32;;;;;;;11.77;7.57;;;29.90;64.80;;;;;;5004134;28;20276;-74
2021/07/28 08:59:58;;;;;;;11.35;7.60;;;30.00;65.40;;;;;;5007550;28;20278;-74
2021/07/28 09:02:25;;;;;;;10.00;7.78;;;30.10;64.80;;;;;;5005284;28;20220;-74
2021/07/28 09:04:51;;;;;;;11.00;7.85;;;30.30;64.60;;;;;;5006189;28;20187;-74
2021/07/28 09:07:20;;;;;;;9.93;7.13;;;30.50;65.00;;;;;;5005916;28;20294;-74
2021/07/28 09:09:53;;;;;;;10.50;8.00;;;30.60;64.20;;;;;;5004587;28;20185;-74
2021/07/28 09:12:21;;;;;;;8.93;7.57;;;30.70;64.00;;;;;;5004811;28;20267;-74
2021/07/28 09:14:54;;;;;;;9.20;7.85;;;30.90;63.40;;;;;;5005974;28;20223;-74
2021/07/28 09:17:26;;;;;;;12.15;7.03;;;31.00;62.30;;;;;;5004862;28;20189;-74
2021/07/28 09:19:51;;;;;;;14.45;8.40;;;31.10;62.10;;;;;;5002761;28;20670;-74
2021/07/28 09:22:21;;;;;;;12.70;7.90;;;31.20;63.00;;;;;;5008044;28;20212;-74
2021/07/28 09:25:30;;;;;;;8.55;7.70;;;31.40;62.60;;;;;;5006667;28;20185;-74
2021/07/28 09:27:56;;;;;;;7.68;6.88;;;31.50;61.70;;;;;;5004408;28;20185;-74
2021/07/28 09:30:25;;;;;;;10.32;7.82;;;31.60;61.80;;;;;;5005243;28;20177;-74
2021/07/28 09:33:09;;;;;;;9.05;6.90;;;31.80;61.80;;;;;;5002996;28;20189;-74
2021/07/28 09:35:47;;;;;;;11.05;7.78;;;32.00;61.80;;;;;;5003930;28;20188;-74
2021/07/28 09:38:48;;;;;;;10.80;7.45;;;32.20;61.30;;;;;;5004588;28;20177;-73
2021/07/28 09:41:27;;;;;;;11.25;7.03;;;32.40;60.50;;;;;;5006607;28;20294;-74
2021/07/28 09:44:02;;;;;;;10.13;7.22;;;32.50;59.80;;;;;;5003859;28;20262;-74
2021/07/28 09:46:30;;;;;;;12.07;7.38;;;32.70;59.60;;;;;;5003375;28;20207;-74
2021/07/28 09:48:58;;;;;;;10.98;7.43;;;32.90;58.50;;;;;;5001121;28;20207;-74
2021/07/28 09:51:25;;;;;;;12.00;8.55;;;33.10;59.00;;;;;;5007791;28;20192;-74
2021/07/28 09:53:59;;;;;;;8.88;6.90;;;33.30;59.10;;;;;;5004058;28;20192;-74
2021/07/28 09:56:28;;;;;;;8.43;7.05;;;33.50;58.00;;;;;;5004498;28;20189;-74
2021/07/28 09:58:57;;;;;;;12.18;6.85;;;33.70;58.30;;;;;;5002956;28;20184;-73
2021/07/28 10:01:24;;;;;;;14.75;7.47;;;34.00;58.30;;;;;;5003532;28;20212;-73
2021/07/28 10:03:50;;;;;;;7.20;6.50;;;34.30;57.20;;;;;;5001435;28;20223;-75
2021/07/28 10:06:17;;;;;;;15.10;6.90;;;34.60;56.60;;;;;;5005544;28;20180;-75
2021/07/28 10:08:44;;;;;;;9.15;7.25;;;35.00;56.00;;;;;;5008625;28;20207;-73
2021/07/28 10:11:13;;;;;;;12.80;6.90;;;35.20;54.80;;;;;;5010341;28;20207;-73
2021/07/28 10:13:43;;;;;;;11.38;7.57;;;35.50;55.40;;;;;;5009373;28;20184;-73
2021/07/28 10:16:09;;;;;;;8.35;6.60;;;36.00;55.00;;;;;;5010232;28;20245;-74
2021/07/28 10:18:35;;;;;;;7.80;6.45;;;36.50;53.80;;;;;;5009262;28;20276;-74
2021/07/28 10:21:01;;;;;;;9.38;7.00;;;36.90;52.90;;;;;;5009925;28;20169;-74
2021/07/28 10:23:27;;;;;;;9.73;7.38;;;37.50;52.20;;;;;;5008835;28;20997;-74
2021/07/28 10:25:53;;;;;;;7.88;6.78;;;38.10;50.50;;;;;;5009811;28;20192;-75
2021/07/28 10:28:19;;;;;;;8.65;6.93;;;38.70;49.60;;;;;;5009555;28;20188;-73
2021/07/28 10:31:18;;;;;;;10.05;6.75;;;39.30;50.20;;;;;;5006262;28;20196;-73
2021/07/28 10:33:54;;;;;;;8.88;6.82;;;39.90;49.10;;;;;;5009192;28;20215;-73
2021/07/28 10:36:42;;;;;;;9.30;6.15;;;40.50;48.10;;;;;;5008690;28;20246;-73
2021/07/28 10:39:07;;;;;;;11.80;6.75;;;41.20;48.80;;;;;;5004249;28;20199;-74
2021/07/28 10:41:41;;;;;;;9.75;7.18;;;41.80;48.70;;;;;;5009016;28;20212;-74
2021/07/28 10:44:18;;;;;;;8.52;6.72;;;42.20;47.10;;;;;;5003702;28;20188;-74
2021/07/28 10:46:53;;;;;;;9.48;6.80;;;42.50;46.80;;;;;;5008304;28;20214;-74
2021/07/28 10:49:36;;;;;;;9.98;6.38;;;42.80;46.30;;;;;;5007391;28;20627;-74
2021/07/28 10:52:04;;;;;;;7.78;6.63;;;43.00;45.30;;;;;;5008934;28;20455;-74
2021/07/28 10:54:48;;;;;;;10.23;6.68;;;43.40;44.90;;;;;;5007534;28;20238;-74
2021/07/28 10:57:33;;;;;;;6.43;5.90;;;43.80;44.80;;;;;;5005664;28;20439;-74
2021/07/28 10:59:59;;;;;;;8.80;6.30;;;44.30;44.00;;;;;;5007811;28;20226;-74
2021/07/28 11:02:51;;;;;;;7.38;5.63;;;44.70;44.40;;;;;;5005793;28;20216;-74
2021/07/28 11:05:22;;;;;;;7.30;6.50;;;45.00;41.80;;;;;;5005439;28;20189;-74
2021/07/28 11:08:03;;;;;;;9.70;6.15;;;45.40;42.60;;;;;;5005999;28;20181;-74
2021/07/28 11:10:34;;;;;;;6.15;5.65;;;45.60;41.00;;;;;;5006176;28;20195;-74
2021/07/28 11:13:21;;;;;;;7.57;6.53;;;45.70;42.50;;;;;;5006747;28;20258;-75
2021/07/28 11:15:56;;;;;;;13.20;6.50;;;46.00;41.70;;;;;;5003000;28;20686;-75
2021/07/28 11:18:43;;;;;;;10.32;6.53;;;46.30;41.90;;;;;;5006997;28;20188;-75
2021/07/28 11:21:23;;;;;;;8.93;6.88;;;46.60;41.70;;;;;;5006118;28;20237;-75
2021/07/28 11:24:00;;;;;;;14.93;6.80;;;46.80;41.20;;;;;;5003574;28;20294;-75
2021/07/28 11:26:36;;;;;;;6.57;6.18;;;47.00;41.60;;;;;;5004889;28;20194;-75
2021/07/28 11:29:09;;;;;;;6.50;6.10;;;47.20;40.80;;;;;;5005301;28;20220;-75
2021/07/28 11:31:43;;;;;;;13.80;6.70;;;47.30;42.00;;;;;;5003879;28;20192;-75
2021/07/28 11:34:17;;;;;;;8.88;5.93;;;47.10;40.80;;;;;;5006650;28;20184;-75
2021/07/28 11:36:46;;;;;;;13.02;6.80;;;47.20;41.10;;;;;;5005316;28;20219;-75
2021/07/28 11:39:15;;;;;;;9.27;5.75;;;47.40;40.00;;;;;;5006168;28;20670;-75
2021/07/28 11:41:41;;;;;;;12.20;6.50;;;47.50;40.10;;;;;;5006193;28;20200;-75
2021/07/28 11:44:07;;;;;;;8.40;6.20;;;47.50;40.60;;;;;;5006091;28;20192;-75
2021/07/28 11:46:33;;;;;;;10.18;6.22;;;47.60;40.10;;;;;;5006810;28;20638;-76
2021/07/28 11:49:03;;;;;;;8.23;6.15;;;47.80;41.10;;;;;;5005165;28;20181;-75
2021/07/28 11:51:35;;;;;;;12.13;6.40;;;47.90;39.80;;;;;;5006954;28;20277;-75
2021/07/28 11:54:13;;;;;;;13.05;6.15;;;47.90;40.00;;;;;;5005686;28;20259;-75
2021/07/28 11:56:53;;;;;;;14.25;5.72;;;48.00;39.70;;;;;;5004607;28;20184;-75
2021/07/28 11:59:23;;;;;;;8.93;5.28;;;48.20;39.90;;;;;;5006125;28;20192;-75
2021/07/28 12:01:56;;;;;;;6.28;5.68;;;48.50;39.50;;;;;;5005215;28;20239;-75
2021/07/28 12:04:24;;;;;;;10.68;4.78;;;48.60;37.80;;;;;;5003954;28;20188;-75
2021/07/28 12:06:51;;;;;;;9.05;5.18;;;48.80;37.70;;;;;;5001782;28;20185;-75
2021/07/28 12:09:23;;;;;;;9.80;5.03;;;48.80;39.90;;;;;;5005020;28;20179;-75
2021/07/28 12:11:56;;;;;;;5.68;4.80;;;48.50;38.20;;;;;;5004364;28;20223;-75
2021/07/28 12:14:29;;;;;;;8.48;5.13;;;48.10;38.80;;;;;;5001382;28;20180;-75
2021/07/28 12:17:01;;;;;;;9.60;5.32;;;47.80;37.90;;;;;;5001264;28;20188;-75
2021/07/28 12:19:35;;;;;;;8.23;5.15;;;47.80;38.50;;;;;;5003099;28;20599;-75
2021/07/28 12:22:05;;;;;;;8.98;5.50;;;47.90;39.10;;;;;;5001956;28;20302;-75
2021/07/28 12:24:37;;;;;;;8.48;4.90;;;47.90;39.50;;;;;;5003457;28;20673;-75
2021/07/28 12:27:25;;;;;;;5.30;4.80;;;47.80;39.00;;;;;;5004999;28;20581;-75
2021/07/28 12:30:04;;;;;;;9.43;4.50;;;47.80;37.60;;;;;;5003655;28;20183;-75
2021/07/28 12:32:35;;;;;;;5.53;5.03;;;48.10;37.40;;;;;;5002107;28;20267;-75
2021/07/28 12:35:14;;;;;;;5.30;4.35;;;48.10;37.60;;;;;;5003800;28;20188;-75
2021/07/28 12:37:39;;;;;;;8.80;4.88;;;48.10;38.00;;;;;;5003246;28;20589;-75
2021/07/28 12:40:06;;;;;;;9.60;5.53;;;47.90;39.80;;;;;;5003775;28;20188;-75
2021/07/28 12:42:31;;;;;;;5.35;4.53;;;47.50;37.90;;;;;;5004790;28;20208;-76
2021/07/28 12:44:58;;;;;;;7.22;4.13;;;47.10;39.70;;;;;;5004913;28;20184;-75
2021/07/28 12:47:24;;;;;;;6.68;4.63;;;46.70;39.70;;;;;;5002095;28;20188;-75
2021/07/28 12:49:50;;;;;;;6.10;4.95;;;46.10;39.50;;;;;;5005721;28;20784;-75